New Geneva, Pennsylvania
Current Conditions -  °F | °C
As of 6:53 PM on Friday 19 Dec 2014 (Local Time) from KMGW Reporting Station
Overcast Overcast  
Wind Chill: 25°   Ceiling: 2100
Heat Index: 30°   Visibility: 10mi
Dew Point: 19°   Wind: 5mph
Humidity: 64%   Direction: NA
Pressure: 30.26"   Gusts: NA
Location:  39.79°N, 79.91°W
Report Text: KMGW 192353Z VRB04KT 10SM OVC021 M01/M07 A3026 RMK AO2 SLP262 T10111072 11006 21011 53011
Loading
Personal Weather Stations






























Interactive Weather Map New forecast layout! Learn more

10-Day Weather Forecast

Advertisements
Track Severe Weather on mobile